createdAt,value
2023-03-06T07:02:44.689Z,17.70
2023-03-06T07:05:12.800Z,18.20
2023-03-06T07:07:40.721Z,42.40
2023-03-06T07:10:13.809Z,42.10
2023-03-06T07:12:42.171Z,18.90
2023-03-06T07:15:13.562Z,14.20
2023-03-06T07:17:41.451Z,13.90
2023-03-06T07:20:10.625Z,14.40
2023-03-06T07:22:50.480Z,13.60
2023-03-06T07:25:20.373Z,14.80
2023-03-06T07:27:53.886Z,15.60
2023-03-06T07:32:56.244Z,17.70
2023-03-06T07:35:25.729Z,19.60
2023-03-06T07:37:53.946Z,20.90
2023-03-06T07:40:22.644Z,19.70
2023-03-06T07:42:54.802Z,23.60
2023-03-06T07:45:27.164Z,20.00
2023-03-06T07:47:55.097Z,16.40
2023-03-06T07:50:23.052Z,17.60
2023-03-06T07:52:51.393Z,23.20
2023-03-06T07:55:19.675Z,22.60
2023-03-06T07:57:50.706Z,21.80
2023-03-06T08:00:19.233Z,23.40
2023-03-06T08:02:47.306Z,18.70
2023-03-06T08:05:17.252Z,19.20
2023-03-06T08:07:45.775Z,22.10
2023-03-06T08:10:16.775Z,19.20
2023-03-06T08:12:44.858Z,18.40
2023-03-06T08:15:13.933Z,22.80
2023-03-06T08:17:41.893Z,19.10
2023-03-06T08:20:10.799Z,15.80
2023-03-06T08:22:39.160Z,17.50
2023-03-06T08:25:08.177Z,17.90
2023-03-06T08:27:36.725Z,15.30
2023-03-06T08:30:09.456Z,13.90
2023-03-06T08:32:37.890Z,14.50
2023-03-06T08:35:06.205Z,14.40
2023-03-06T08:37:34.141Z,13.60
2023-03-06T08:40:04.771Z,14.30
2023-03-06T08:42:32.841Z,13.60
2023-03-06T08:45:00.753Z,20.40
2023-03-06T08:47:29.019Z,18.10
2023-03-06T08:50:00.183Z,19.00
2023-03-06T08:52:28.546Z,16.80
2023-03-06T08:54:57.976Z,13.50
2023-03-06T08:57:25.860Z,13.30
2023-03-06T08:59:53.742Z,13.50
2023-03-06T09:02:21.622Z,16.50
2023-03-06T09:04:49.559Z,15.60
2023-03-06T09:07:17.455Z,11.50
2023-03-06T09:09:45.415Z,13.30
2023-03-06T09:12:13.262Z,14.60
2023-03-06T09:14:41.192Z,14.80
2023-03-06T09:17:09.083Z,12.00
2023-03-06T09:19:37.703Z,11.20
2023-03-06T09:22:05.644Z,11.90
2023-03-06T09:24:33.644Z,14.50
2023-03-06T09:27:02.163Z,12.00
2023-03-06T09:29:30.103Z,13.60
2023-03-06T09:31:58.603Z,17.30
2023-03-06T09:34:27.764Z,14.00
2023-03-06T09:36:57.651Z,12.50
2023-03-06T09:39:26.477Z,13.60
2023-03-06T09:41:57.247Z,12.60
2023-03-06T09:44:29.421Z,10.70
2023-03-06T09:47:18.413Z,10.70
2023-03-06T09:50:11.757Z,11.80
2023-03-06T09:53:18.757Z,10.10
2023-03-06T09:55:56.784Z,10.70
2023-03-06T09:58:26.904Z,14.50
2023-03-06T10:01:03.396Z,10.40
2023-03-06T10:03:39.640Z,11.00
2023-03-06T10:06:13.120Z,14.30
2023-03-06T10:08:52.520Z,11.80
2023-03-06T10:11:28.239Z,10.60
2023-03-06T10:14:39.376Z,10.30
2023-03-06T10:17:20.305Z,10.30
2023-03-06T10:19:49.371Z,10.20
2023-03-06T10:22:29.184Z,11.10
2023-03-06T10:25:05.274Z,10.00
2023-03-06T10:27:44.960Z,9.50
2023-03-06T10:30:26.514Z,16.30
2023-03-06T10:32:59.842Z,25.50
2023-03-06T10:35:52.154Z,19.00
2023-03-06T10:38:28.068Z,11.60
2023-03-06T10:41:18.110Z,13.20
2023-03-06T10:44:06.675Z,13.30
2023-03-06T10:46:42.408Z,11.20
2023-03-06T10:49:34.886Z,11.80
2023-03-06T10:52:06.786Z,13.10
2023-03-06T10:54:41.276Z,10.50
2023-03-06T10:57:20.583Z,13.70
2023-03-06T10:59:57.877Z,12.50
2023-03-06T11:02:38.669Z,13.70
2023-03-06T11:05:19.724Z,11.50
2023-03-06T11:07:56.829Z,10.40
2023-03-06T11:10:25.294Z,11.30
2023-03-06T11:13:07.559Z,10.50
2023-03-06T11:15:35.596Z,11.20
2023-03-06T11:18:40.656Z,10.20
2023-03-06T11:21:31.446Z,8.90
2023-03-06T11:24:19.998Z,8.80
2023-03-06T11:26:58.377Z,18.70
2023-03-06T11:29:36.827Z,10.60
2023-03-06T11:32:44.099Z,9.40
2023-03-06T11:35:19.352Z,9.90
2023-03-06T11:37:58.326Z,11.50
2023-03-06T11:40:48.608Z,12.80
2023-03-06T11:43:38.230Z,14.80
2023-03-06T11:46:22.872Z,11.80
2023-03-06T11:49:13.740Z,8.60
2023-03-06T11:51:50.398Z,9.40
2023-03-06T11:54:18.411Z,9.70
2023-03-06T11:56:48.997Z,10.70
2023-03-06T11:59:38.310Z,10.80
2023-03-06T12:02:27.453Z,9.20
2023-03-06T12:05:14.237Z,9.90
2023-03-06T12:07:57.553Z,10.70
2023-03-06T12:10:38.636Z,9.10
2023-03-06T12:13:40.038Z,10.80
2023-03-06T12:16:35.972Z,9.30
2023-03-06T12:19:25.311Z,10.10
2023-03-06T12:22:17.865Z,8.30
2023-03-06T12:24:55.453Z,9.30
2023-03-06T12:28:15.758Z,8.90
2023-03-06T12:31:02.557Z,11.90
2023-03-06T12:33:43.177Z,10.40
2023-03-06T12:36:25.920Z,9.70
2023-03-06T12:39:03.186Z,9.30
2023-03-06T12:41:43.376Z,9.80
2023-03-06T12:44:26.965Z,9.80
2023-03-06T12:47:01.899Z,10.70
2023-03-06T12:49:38.642Z,12.10
2023-03-06T12:52:18.688Z,10.80
2023-03-06T12:54:50.426Z,10.50
2023-03-06T12:57:18.338Z,10.70
2023-03-06T12:59:48.784Z,12.10
2023-03-06T13:02:49.543Z,12.50
2023-03-06T13:05:26.860Z,12.00
2023-03-06T13:08:31.062Z,12.00
2023-03-06T13:11:23.676Z,12.60
2023-03-06T13:13:51.608Z,10.40
2023-03-06T13:16:45.670Z,11.20
2023-03-06T13:19:20.666Z,11.20
2023-03-06T13:21:54.619Z,11.10
2023-03-06T13:24:25.526Z,10.90
2023-03-06T13:26:57.792Z,10.80
2023-03-06T13:29:38.017Z,11.90
2023-03-06T13:32:15.165Z,11.40
2023-03-06T13:34:46.958Z,10.40
2023-03-06T13:37:18.580Z,11.60
2023-03-06T13:39:52.288Z,11.50
2023-03-06T13:44:58.354Z,11.00
2023-03-06T13:48:15.562Z,13.70
2023-03-06T13:50:39.946Z,14.30
2023-03-06T13:53:37.828Z,21.50
2023-03-06T13:56:17.906Z,14.40
2023-03-06T13:59:07.868Z,13.40
2023-03-06T14:02:12.516Z,28.00
2023-03-06T14:04:57.570Z,28.80
2023-03-06T14:07:35.782Z,27.90
2023-03-06T14:10:20.882Z,18.80
2023-03-06T14:12:48.718Z,15.50
2023-03-06T14:15:18.948Z,15.70
2023-03-06T14:17:59.074Z,17.80
2023-03-06T14:21:01.050Z,18.70
2023-03-06T14:23:35.699Z,18.80
2023-03-06T14:26:03.634Z,25.10
2023-03-06T14:28:32.960Z,19.80
2023-03-06T14:31:03.523Z,27.70
2023-03-06T14:33:50.354Z,15.40
2023-03-06T14:36:21.625Z,20.60
2023-03-06T14:39:02.583Z,11.50
2023-03-06T14:41:33.613Z,14.70
2023-03-06T14:44:22.661Z,10.00
2023-03-06T14:46:56.432Z,14.00
2023-03-06T14:49:26.334Z,13.90
2023-03-06T14:52:00.544Z,11.90
2023-03-06T14:54:31.663Z,9.20
2023-03-06T14:57:13.206Z,8.20
2023-03-06T14:59:47.482Z,8.60
2023-03-06T15:02:22.815Z,9.70
2023-03-06T15:05:13.767Z,11.60
2023-03-06T15:07:42.797Z,12.80
2023-03-06T15:10:22.559Z,8.80
2023-03-06T15:12:50.534Z,9.40
2023-03-06T15:15:18.572Z,8.80
2023-03-06T15:17:47.621Z,10.40
2023-03-06T15:20:53.722Z,8.10
2023-03-06T15:23:34.309Z,11.20
2023-03-06T15:26:29.632Z,9.80
2023-03-06T15:29:08.962Z,11.50
2023-03-06T15:31:39.751Z,11.80
2023-03-06T15:34:07.871Z,13.00
2023-03-06T15:36:38.775Z,13.50
2023-03-06T15:39:29.966Z,18.80
2023-03-06T15:42:00.436Z,21.20
2023-03-06T15:44:32.428Z,20.40
2023-03-06T15:47:08.476Z,22.80
2023-03-06T15:49:38.867Z,22.50
2023-03-06T15:52:07.583Z,20.90
2023-03-06T15:54:36.466Z,16.80
2023-03-06T15:57:08.152Z,15.30
2023-03-06T15:59:42.936Z,11.80
2023-03-06T16:02:18.534Z,12.00
2023-03-06T16:04:46.967Z,14.00
2023-03-06T16:07:15.064Z,10.10
2023-03-06T16:09:43.554Z,9.40
2023-03-06T16:12:17.918Z,10.50
2023-03-06T16:14:47.680Z,9.80
2023-03-06T16:17:16.002Z,11.90
2023-03-06T16:19:44.189Z,13.00
2023-03-06T16:22:12.249Z,16.00
2023-03-06T16:24:40.163Z,12.40
2023-03-06T16:27:17.630Z,10.60
2023-03-06T16:29:45.554Z,11.30
2023-03-06T16:32:13.546Z,12.30
2023-03-06T16:34:41.694Z,13.90
2023-03-06T16:37:12.925Z,13.70
2023-03-06T16:39:40.862Z,17.10
2023-03-06T16:42:08.889Z,21.90
2023-03-06T16:44:36.882Z,24.30
2023-03-06T16:47:04.899Z,26.50
2023-03-06T16:49:32.862Z,23.70
2023-03-06T16:52:01.029Z,22.80
2023-03-06T16:54:28.939Z,21.70
2023-03-06T16:56:57.218Z,20.00
2023-03-06T16:59:25.409Z,20.00
2023-03-06T17:01:53.276Z,20.10
2023-03-06T17:04:21.311Z,18.20
2023-03-06T17:06:49.266Z,19.80
2023-03-06T17:09:17.464Z,19.50
2023-03-06T17:11:46.804Z,19.90
2023-03-06T17:14:15.011Z,19.20
2023-03-06T17:16:43.111Z,31.30
2023-03-06T17:19:16.297Z,35.00
2023-03-06T17:21:44.351Z,39.60
2023-03-06T17:24:12.296Z,35.90
2023-03-06T17:26:40.269Z,25.60
2023-03-06T17:29:09.567Z,19.40
2023-03-06T17:31:37.801Z,19.10
2023-03-06T17:34:05.764Z,18.50
2023-03-06T17:36:34.585Z,19.80
2023-03-06T17:39:03.428Z,21.40
2023-03-06T17:41:32.879Z,21.90
2023-03-06T17:44:01.899Z,22.60
2023-03-06T17:46:32.273Z,24.70
2023-03-06T17:49:00.470Z,27.30
2023-03-06T17:51:28.634Z,26.50
2023-03-06T17:53:57.458Z,28.80
2023-03-06T17:56:26.340Z,37.90
2023-03-06T17:58:54.605Z,41.00
2023-03-06T18:01:27.593Z,39.40
2023-03-06T18:03:56.299Z,30.10
2023-03-06T18:06:27.517Z,39.80
2023-03-06T18:08:55.512Z,38.20
2023-03-06T18:11:23.502Z,36.20
2023-03-06T18:13:51.558Z,33.60
2023-03-06T18:16:23.031Z,26.20
2023-03-06T18:18:53.006Z,29.10
2023-03-06T18:21:21.744Z,35.90
2023-03-06T18:23:50.602Z,30.60
2023-03-06T18:26:25.395Z,26.40
2023-03-06T18:29:01.298Z,24.10
2023-03-06T18:31:34.428Z,23.90
2023-03-06T18:34:09.262Z,22.40
2023-03-06T18:36:37.934Z,22.40
2023-03-06T18:39:08.914Z,22.00
2023-03-06T18:41:37.776Z,22.20
2023-03-06T18:44:06.573Z,26.70
2023-03-06T18:46:37.628Z,31.70
2023-03-06T18:49:06.045Z,41.60
2023-03-06T18:51:34.763Z,39.00
2023-03-06T18:54:04.329Z,22.70
2023-03-06T18:56:33.113Z,36.10
2023-03-06T18:59:04.925Z,28.30
2023-03-06T19:01:34.462Z,21.70
2023-03-06T19:04:04.614Z,18.70
2023-03-06T19:06:33.169Z,19.70
2023-03-06T19:09:02.303Z,19.10
2023-03-06T19:11:31.013Z,20.60
2023-03-06T19:13:59.842Z,24.00
2023-03-06T19:16:29.657Z,23.40
2023-03-06T19:18:58.066Z,22.20
2023-03-06T19:21:27.704Z,22.70
2023-03-06T19:23:57.246Z,24.40
2023-03-06T19:26:25.300Z,22.00
2023-03-06T19:28:53.197Z,22.60
2023-03-06T19:31:25.273Z,22.50
2023-03-06T19:33:54.930Z,23.90
2023-03-06T19:36:26.922Z,21.50
2023-03-06T19:38:56.715Z,22.40
2023-03-06T19:41:25.483Z,25.20
2023-03-06T19:43:55.979Z,21.40
2023-03-06T19:46:24.895Z,23.10
2023-03-06T19:48:58.790Z,20.80
2023-03-06T19:51:27.453Z,21.70
2023-03-06T19:53:56.972Z,20.40
2023-03-06T19:56:28.317Z,22.70
2023-03-06T19:58:56.772Z,27.10
2023-03-06T20:01:26.375Z,30.00
2023-03-06T20:03:59.395Z,33.40
2023-03-06T20:06:30.291Z,33.50
2023-03-06T20:08:58.443Z,29.00
2023-03-06T20:11:29.967Z,27.10
2023-03-06T20:14:00.137Z,23.40
2023-03-06T20:16:29.124Z,20.30
2023-03-06T20:19:00.201Z,21.50
2023-03-06T20:21:30.762Z,21.80
2023-03-06T20:23:59.124Z,19.20
2023-03-06T20:26:28.599Z,20.70
2023-03-06T20:28:57.129Z,20.30
2023-03-06T20:31:27.475Z,24.80
2023-03-06T20:33:57.523Z,26.20
2023-03-06T20:36:31.325Z,26.50
2023-03-06T20:39:01.383Z,27.60
2023-03-06T20:41:31.416Z,28.20
2023-03-06T20:44:02.539Z,25.40
2023-03-06T20:46:31.261Z,25.50
2023-03-06T20:48:59.669Z,25.10
2023-03-06T20:51:31.549Z,25.40
2023-03-06T20:54:01.346Z,24.00
2023-03-06T20:56:32.185Z,25.30
2023-03-06T20:59:00.456Z,26.40
2023-03-06T21:01:38.371Z,28.90
2023-03-06T21:04:07.026Z,27.40
2023-03-06T21:06:34.927Z,27.80
2023-03-06T21:09:04.863Z,27.40
2023-03-06T21:11:34.723Z,27.90
2023-03-06T21:14:03.161Z,26.40
2023-03-06T21:16:31.666Z,24.70
2023-03-06T21:19:00.497Z,22.90
2023-03-06T21:21:31.416Z,24.10
2023-03-06T21:24:00.630Z,22.90
2023-03-06T21:26:31.488Z,23.50
2023-03-06T21:28:59.467Z,23.80
2023-03-06T21:31:28.710Z,24.10
2023-03-06T21:33:57.476Z,23.70
2023-03-06T21:36:26.065Z,23.80
2023-03-06T21:38:54.652Z,23.70
2023-03-06T21:41:28.580Z,24.20
2023-03-06T21:43:58.461Z,26.40
2023-03-06T21:46:27.690Z,31.40
2023-03-06T21:48:56.634Z,29.30
2023-03-06T21:51:25.445Z,29.70
2023-03-06T21:53:54.523Z,28.60
2023-03-06T21:56:25.554Z,29.80
2023-03-06T21:58:54.339Z,30.50
2023-03-06T22:01:25.553Z,33.30
2023-03-06T22:03:53.607Z,32.40
2023-03-06T22:06:26.971Z,31.90
2023-03-06T22:08:56.193Z,33.80
2023-03-06T22:11:25.450Z,32.00
2023-03-06T22:13:53.552Z,30.70
2023-03-06T22:16:21.797Z,31.70
2023-03-06T22:18:51.440Z,33.10
2023-03-06T22:21:21.923Z,35.80
2023-03-06T22:23:51.481Z,42.30
2023-03-06T22:26:19.847Z,34.10
2023-03-06T22:28:47.756Z,36.50
2023-03-06T22:31:19.286Z,34.70
2023-03-06T22:33:49.835Z,43.70
2023-03-06T22:36:18.359Z,40.70
2023-03-06T22:38:47.662Z,39.80
2023-03-06T22:41:17.378Z,39.90
2023-03-06T22:43:45.241Z,39.70
2023-03-06T22:46:16.316Z,38.80
2023-03-06T22:48:44.729Z,39.00
2023-03-06T22:51:16.154Z,40.90
2023-03-06T22:53:44.993Z,40.70
2023-03-06T22:56:15.874Z,39.70
2023-03-06T22:58:44.995Z,37.70
2023-03-06T23:01:16.444Z,38.80
2023-03-06T23:03:47.130Z,39.60
2023-03-06T23:06:18.390Z,37.20
2023-03-06T23:09:10.750Z,38.30
2023-03-06T23:11:57.128Z,39.80
2023-03-06T23:14:44.901Z,39.50
2023-03-06T23:17:31.510Z,38.90
2023-03-06T23:20:18.419Z,36.50
2023-03-06T23:23:05.050Z,31.20
2023-03-06T23:25:42.665Z,29.80
2023-03-06T23:28:11.417Z,29.30
2023-03-06T23:30:40.280Z,26.80
2023-03-06T23:33:09.040Z,26.10
2023-03-06T23:35:39.124Z,25.60
2023-03-06T23:38:07.364Z,33.30
2023-03-06T23:40:36.899Z,34.00
2023-03-06T23:43:05.247Z,36.80
2023-03-06T23:45:33.408Z,37.50
2023-03-06T23:48:01.260Z,40.90
2023-03-06T23:50:29.205Z,38.90
2023-03-06T23:52:57.063Z,38.80
2023-03-06T23:55:24.931Z,35.20
2023-03-06T23:57:52.825Z,35.80
